Time;durP1;ratioP1;P1;durP2;ratioP2;P2;SDS_P1;SDS_P2;PMS_P1;PMS_P2;Temp;Humidity;BMP_temperature;BMP_pressure;BME280_temperature;BME280_humidity;BME280_pressure;Samples;Min_cycle;Max_cycle;Signal;HPM_P1;HPM_P2
2022/10/24 00:01:30;;;;;;;6.03;0.90;;;14.80;99.90;;;;;;5052534;28;20081;-66
2022/10/24 00:03:57;;;;;;;6.57;1.02;;;14.80;99.90;;;;;;5058200;28;20072;-66
2022/10/24 00:06:23;;;;;;;5.32;1.05;;;14.80;99.90;;;;;;5057425;28;20552;-66
2022/10/24 00:08:50;;;;;;;4.07;0.98;;;14.80;99.90;;;;;;5063808;28;20124;-66
2022/10/24 00:11:22;;;;;;;6.82;1.00;;;14.80;99.90;;;;;;5055819;28;20045;-66
2022/10/24 00:13:49;;;;;;;5.22;1.17;;;14.80;99.90;;;;;;5059956;28;20418;-66
2022/10/24 00:16:14;;;;;;;8.95;1.40;;;14.80;99.90;;;;;;5059673;28;20064;-66
2022/10/24 00:18:41;;;;;;;3.90;1.17;;;14.90;99.90;;;;;;5055950;28;20496;-66
2022/10/24 00:21:07;;;;;;;4.93;1.33;;;14.90;99.90;;;;;;5059376;28;20122;-66
2022/10/24 00:23:33;;;;;;;6.18;0.88;;;14.90;99.90;;;;;;5058243;28;20021;-66
2022/10/24 00:26:02;;;;;;;5.72;1.20;;;14.90;99.90;;;;;;5058222;28;20048;-66
2022/10/24 00:28:30;;;;;;;4.78;1.10;;;14.90;99.90;;;;;;5056317;28;20083;-65
2022/10/24 00:30:57;;;;;;;4.85;1.13;;;15.00;99.90;;;;;;5057531;28;20111;-66
2022/10/24 00:33:23;;;;;;;4.18;0.93;;;15.00;99.90;;;;;;5054975;28;20139;-66
2022/10/24 00:35:48;;;;;;;5.07;1.00;;;15.00;99.90;;;;;;5058596;28;20044;-66
2022/10/24 00:38:14;;;;;;;3.25;0.75;;;15.00;99.90;;;;;;5055874;28;20029;-66
2022/10/24 00:40:40;;;;;;;6.90;1.35;;;15.00;99.90;;;;;;5056097;28;20041;-66
2022/10/24 00:43:23;;;;;;;4.18;1.30;;;15.00;99.90;;;;;;5057751;28;20044;-66
2022/10/24 00:45:57;;;;;;;4.70;1.35;;;15.00;99.90;;;;;;5058996;28;20112;-66
2022/10/24 00:48:44;;;;;;;2.90;0.90;;;14.90;99.90;;;;;;5048832;28;20045;-66
2022/10/24 00:51:26;;;;;;;4.95;1.45;;;14.90;99.90;;;;;;5055477;28;20060;-66
2022/10/24 00:53:59;;;;;;;4.68;1.20;;;14.90;99.90;;;;;;5059325;28;20044;-67
2022/10/24 00:56:29;;;;;;;6.75;1.45;;;14.90;99.90;;;;;;5048650;28;20481;-67
2022/10/24 00:58:58;;;;;;;8.65;1.40;;;14.90;99.90;;;;;;5051683;28;20040;-67
2022/10/24 01:01:25;;;;;;;5.90;1.48;;;14.90;99.90;;;;;;5053692;28;20055;-67
2022/10/24 01:03:50;;;;;;;4.13;1.73;;;14.90;99.90;;;;;;5056432;28;20357;-67
2022/10/24 01:06:37;;;;;;;5.13;1.80;;;15.00;99.90;;;;;;5052869;28;20048;-67
2022/10/24 01:09:32;;;;;;;4.20;1.35;;;15.00;99.90;;;;;;5051301;28;20045;-67
2022/10/24 01:12:17;;;;;;;5.20;1.70;;;15.10;99.90;;;;;;5051610;28;20132;-67
2022/10/24 01:15:14;;;;;;;5.18;1.67;;;15.10;99.90;;;;;;5057377;28;20484;-67
2022/10/24 01:17:52;;;;;;;7.82;2.67;;;15.10;99.90;;;;;;5054844;28;20126;-67
2022/10/24 01:20:56;;;;;;;7.97;2.67;;;15.10;99.90;;;;;;5055656;28;20111;-67
2022/10/24 01:23:40;;;;;;;5.88;2.03;;;15.20;99.90;;;;;;5050203;28;20099;-67
2022/10/24 01:26:53;;;;;;;6.70;2.20;;;15.20;99.90;;;;;;5050528;28;20040;-67
2022/10/24 01:29:30;;;;;;;4.97;1.77;;;15.30;99.90;;;;;;5050110;28;20132;-67
2022/10/24 01:32:15;;;;;;;5.22;2.15;;;15.30;99.90;;;;;;5055307;28;20092;-67
2022/10/24 01:34:55;;;;;;;5.55;1.98;;;15.30;99.90;;;;;;5043236;28;20084;-67
2022/10/24 01:37:30;;;;;;;4.65;1.85;;;15.20;99.90;;;;;;5059555;28;20040;-67
2022/10/24 01:40:01;;;;;;;7.15;2.40;;;15.20;99.90;;;;;;5055248;28;20071;-67
2022/10/24 01:42:30;;;;;;;6.95;2.15;;;15.10;99.90;;;;;;5053008;28;20126;-67
2022/10/24 01:44:59;;;;;;;5.20;1.88;;;15.10;99.90;;;;;;5055631;28;20116;-67
2022/10/24 01:47:37;;;;;;;6.78;2.28;;;15.00;99.90;;;;;;5052282;28;20491;-67
2022/10/24 01:50:08;;;;;;;7.03;2.25;;;15.00;99.90;;;;;;5054161;28;20036;-67
2022/10/24 01:52:38;;;;;;;10.98;2.10;;;14.90;99.90;;;;;;5053632;28;20119;-67
2022/10/24 01:55:04;;;;;;;9.25;2.05;;;14.90;99.90;;;;;;5054727;28;20068;-67
2022/10/24 01:57:32;;;;;;;6.72;1.90;;;14.90;99.90;;;;;;5053561;28;20148;-67
2022/10/24 01:59:58;;;;;;;8.45;2.38;;;14.90;99.90;;;;;;5050782;28;20404;-67
2022/10/24 02:02:30;;;;;;;8.05;2.00;;;14.90;99.90;;;;;;5050664;28;20044;-67
2022/10/24 02:05:05;;;;;;;6.20;1.95;;;14.90;99.90;;;;;;5051144;28;20045;-67
2022/10/24 02:07:33;;;;;;;5.22;2.20;;;14.90;99.90;;;;;;5052790;28;20033;-67
2022/10/24 02:10:06;;;;;;;9.82;2.20;;;14.90;99.90;;;;;;5054367;28;20139;-67
2022/10/24 02:12:33;;;;;;;6.35;2.22;;;14.90;99.90;;;;;;5055425;28;20025;-67
2022/10/24 02:15:28;;;;;;;8.13;2.03;;;14.90;99.90;;;;;;5056344;28;20470;-67
2022/10/24 02:17:54;;;;;;;10.10;2.78;;;14.90;99.90;;;;;;5053876;28;20062;-67
2022/10/24 02:20:35;;;;;;;10.45;2.33;;;14.90;99.90;;;;;;5057629;28;20055;-67
2022/10/24 02:23:09;;;;;;;9.20;2.50;;;14.90;99.90;;;;;;5053707;28;20037;-67
2022/10/24 02:25:39;;;;;;;6.88;2.22;;;14.90;99.90;;;;;;5049020;28;20045;-67
2022/10/24 02:28:20;;;;;;;5.13;1.90;;;14.80;99.90;;;;;;5050573;28;20037;-67
2022/10/24 02:30:52;;;;;;;6.95;2.30;;;14.80;99.90;;;;;;5054054;28;20392;-67
2022/10/24 02:33:19;;;;;;;7.40;1.70;;;14.80;99.90;;;;;;5046859;28;20131;-67
2022/10/24 02:35:46;;;;;;;7.57;2.03;;;14.90;99.90;;;;;;5053227;28;20053;-67
2022/10/24 02:38:19;;;;;;;5.88;2.03;;;14.90;99.90;;;;;;5058189;28;20396;-67
2022/10/24 02:40:48;;;;;;;5.03;1.50;;;14.90;99.90;;;;;;5055718;28;20061;-67
2022/10/24 02:43:16;;;;;;;6.10;1.98;;;14.90;99.90;;;;;;5049397;28;20101;-67
2022/10/24 02:45:43;;;;;;;6.75;2.17;;;14.90;99.90;;;;;;5051238;28;20044;-67
2022/10/24 02:48:12;;;;;;;6.15;1.80;;;14.90;99.90;;;;;;5053272;28;20094;-67
2022/10/24 02:50:40;;;;;;;7.78;1.60;;;14.90;99.90;;;;;;5054653;28;20087;-67
2022/10/24 02:53:09;;;;;;;7.40;2.38;;;14.90;99.90;;;;;;5063131;28;20101;-67
2022/10/24 02:55:35;;;;;;;7.05;2.05;;;14.90;99.90;;;;;;5055071;28;20129;-66
2022/10/24 02:58:00;;;;;;;12.20;1.98;;;14.90;99.90;;;;;;5055209;28;20132;-67
2022/10/24 03:00:26;;;;;;;5.70;1.50;;;14.90;99.90;;;;;;5051938;28;20442;-67
2022/10/24 03:02:52;;;;;;;7.57;1.70;;;14.90;99.90;;;;;;5048346;28;20044;-67
2022/10/24 03:05:18;;;;;;;7.72;1.90;;;14.90;99.90;;;;;;5057137;28;20033;-67
2022/10/24 03:07:43;;;;;;;4.72;1.67;;;14.80;99.90;;;;;;5049350;28;20065;-67
2022/10/24 03:10:09;;;;;;;6.38;1.90;;;14.80;99.90;;;;;;5054868;28;20037;-67
2022/10/24 03:12:35;;;;;;;8.27;1.83;;;14.90;99.90;;;;;;5052906;28;20041;-67
2022/10/24 03:15:00;;;;;;;6.72;1.83;;;14.80;99.90;;;;;;5056959;28;20048;-67
2022/10/24 03:17:26;;;;;;;6.85;1.75;;;14.90;99.90;;;;;;5052909;28;20053;-67
2022/10/24 03:19:51;;;;;;;9.07;1.98;;;14.90;99.90;;;;;;5054827;28;20408;-67
2022/10/24 03:22:17;;;;;;;6.25;1.73;;;14.90;99.90;;;;;;5059596;28;20040;-67
2022/10/24 03:24:43;;;;;;;3.58;1.40;;;14.80;99.90;;;;;;5055409;28;20028;-67
2022/10/24 03:27:08;;;;;;;8.13;2.22;;;14.80;99.90;;;;;;5053536;28;20065;-67
2022/10/24 03:29:34;;;;;;;9.38;1.98;;;14.70;99.90;;;;;;5050026;28;20118;-67
2022/10/24 03:32:00;;;;;;;8.90;1.88;;;14.70;99.90;;;;;;5055559;28;20079;-67
2022/10/24 03:34:25;;;;;;;5.97;1.52;;;14.60;99.90;;;;;;5053419;28;20047;-67
2022/10/24 03:36:51;;;;;;;7.28;1.95;;;14.60;99.90;;;;;;5055805;28;20122;-67
2022/10/24 03:39:17;;;;;;;4.97;1.80;;;14.60;99.90;;;;;;5055363;28;20056;-67
2022/10/24 03:41:42;;;;;;;6.45;2.00;;;14.60;99.90;;;;;;5055357;28;20044;-67
2022/10/24 03:44:08;;;;;;;8.32;2.13;;;14.60;99.90;;;;;;5060401;28;20043;-67
2022/10/24 03:46:34;;;;;;;8.60;1.95;;;14.60;99.90;;;;;;5056724;28;20120;-67
2022/10/24 03:48:59;;;;;;;4.18;1.85;;;14.60;99.90;;;;;;5053734;28;20500;-67
2022/10/24 03:51:25;;;;;;;5.40;1.80;;;14.60;99.90;;;;;;5061671;28;20131;-67
2022/10/24 03:53:51;;;;;;;7.03;1.70;;;14.60;99.90;;;;;;5060353;28;20499;-67
2022/10/24 03:56:16;;;;;;;6.82;1.73;;;14.60;99.90;;;;;;5058184;28;20049;-67
2022/10/24 03:58:42;;;;;;;9.02;1.77;;;14.60;99.90;;;;;;5055990;28;20053;-67
2022/10/24 04:01:09;;;;;;;7.95;1.70;;;14.50;99.90;;;;;;5061609;28;20036;-67
2022/10/24 04:03:35;;;;;;;7.00;1.83;;;14.50;99.90;;;;;;5057355;28;20396;-67
2022/10/24 04:06:00;;;;;;;6.60;1.88;;;14.50;99.90;;;;;;5049460;28;20045;-67
2022/10/24 04:08:26;;;;;;;4.35;1.70;;;14.40;99.90;;;;;;5042890;28;20150;-67
2022/10/24 04:10:51;;;;;;;8.55;1.73;;;14.40;99.90;;;;;;5053831;28;20080;-67
2022/10/24 04:13:17;;;;;;;6.60;1.30;;;14.40;99.90;;;;;;5055446;28;20041;-66
2022/10/24 04:15:43;;;;;;;8.95;1.63;;;14.30;99.90;;;;;;5059608;28;20045;-66
2022/10/24 04:18:09;;;;;;;4.00;1.85;;;14.30;99.90;;;;;;5052714;28;20044;-66
2022/10/24 04:20:35;;;;;;;5.43;1.33;;;14.30;99.90;;;;;;5053787;28;20420;-67
2022/10/24 04:23:01;;;;;;;5.85;1.70;;;14.30;99.90;;;;;;5055004;28;20484;-67
2022/10/24 04:25:26;;;;;;;8.30;1.35;;;14.30;99.90;;;;;;5054781;28;20045;-66
2022/10/24 04:27:52;;;;;;;10.32;1.85;;;14.30;99.90;;;;;;5060726;28;20069;-66
2022/10/24 04:30:18;;;;;;;5.35;1.20;;;14.30;99.90;;;;;;5058659;28;20377;-66
2022/10/24 04:32:44;;;;;;;7.03;1.27;;;14.30;99.90;;;;;;5055833;28;20572;-67
2022/10/24 04:35:09;;;;;;;5.25;1.52;;;14.20;99.90;;;;;;5060413;28;20029;-66
2022/10/24 04:37:35;;;;;;;4.10;1.23;;;14.20;99.90;;;;;;5062043;28;20126;-66
2022/10/24 04:40:01;;;;;;;7.13;1.58;;;14.10;99.90;;;;;;5058588;28;20044;-67
2022/10/24 04:42:26;;;;;;;6.75;1.95;;;14.10;99.90;;;;;;5060454;28;20037;-66
2022/10/24 04:44:52;;;;;;;7.53;1.60;;;14.10;99.90;;;;;;5062095;28;20052;-66
2022/10/24 04:47:17;;;;;;;6.32;1.48;;;14.10;99.90;;;;;;5052814;28;20108;-67
2022/10/24 04:49:43;;;;;;;6.68;1.77;;;14.10;99.90;;;;;;5061382;28;20107;-67
2022/10/24 04:52:09;;;;;;;5.72;1.35;;;14.00;99.90;;;;;;5057839;28;20037;-67
2022/10/24 04:54:35;;;;;;;9.85;1.88;;;14.00;99.90;;;;;;5056795;28;20041;-66
2022/10/24 04:57:00;;;;;;;3.60;1.48;;;14.00;99.90;;;;;;5052014;28;20404;-66
2022/10/24 04:59:26;;;;;;;6.47;1.45;;;13.90;99.90;;;;;;5048103;28;20449;-66
2022/10/24 05:01:53;;;;;;;4.78;1.10;;;13.90;99.90;;;;;;5050822;28;20055;-66
2022/10/24 05:04:20;;;;;;;7.78;1.17;;;13.90;99.90;;;;;;5056178;28;20116;-66
2022/10/24 05:06:46;;;;;;;11.85;1.75;;;13.90;99.90;;;;;;5049055;28;20098;-66
2022/10/24 05:09:12;;;;;;;6.45;1.40;;;13.90;99.90;;;;;;5059266;28;20048;-66
2022/10/24 05:11:38;;;;;;;7.47;1.73;;;13.90;99.90;;;;;;5058195;28;20050;-66
2022/10/24 05:14:04;;;;;;;6.00;1.45;;;13.90;99.90;;;;;;5057300;28;20033;-66
2022/10/24 05:16:29;;;;;;;6.13;1.30;;;13.90;99.90;;;;;;5055300;28;20128;-66
2022/10/24 05:18:55;;;;;;;6.85;1.60;;;13.90;99.90;;;;;;5053276;28;20045;-66
2022/10/24 05:21:21;;;;;;;7.95;1.40;;;13.90;99.90;;;;;;5054504;28;20048;-66
2022/10/24 05:23:47;;;;;;;8.35;1.50;;;13.90;99.90;;;;;;5050888;28;20040;-66
2022/10/24 05:26:12;;;;;;;4.93;1.25;;;13.90;99.90;;;;;;5052281;28;20056;-66
2022/10/24 05:28:38;;;;;;;5.20;1.02;;;13.90;99.90;;;;;;5036564;28;20052;-66
2022/10/24 05:31:04;;;;;;;6.03;1.13;;;13.80;99.90;;;;;;5055672;28;20037;-66
2022/10/24 05:33:29;;;;;;;6.93;1.13;;;13.80;99.90;;;;;;5056050;28;20040;-66
2022/10/24 05:35:55;;;;;;;4.55;0.93;;;13.80;99.90;;;;;;5050127;28;20422;-66
2022/10/24 05:38:21;;;;;;;5.30;1.05;;;13.80;99.90;;;;;;5055910;28;20495;-66
2022/10/24 05:40:48;;;;;;;5.57;1.08;;;13.70;99.90;;;;;;5058267;28;20051;-66
2022/10/24 05:43:14;;;;;;;5.70;1.33;;;13.70;99.90;;;;;;5053180;28;20441;-66
2022/10/24 05:45:40;;;;;;;6.28;1.30;;;13.80;99.90;;;;;;5054722;28;20120;-66
2022/10/24 05:48:06;;;;;;;7.60;1.30;;;13.80;99.90;;;;;;5052283;28;20500;-66
2022/10/24 05:50:33;;;;;;;7.15;1.30;;;13.90;99.90;;;;;;5054806;28;20033;-66
2022/10/24 05:52:59;;;;;;;4.63;1.10;;;13.90;99.90;;;;;;5047387;28;20049;-66
2022/10/24 05:55:25;;;;;;;5.72;1.20;;;13.90;99.90;;;;;;5053794;28;20048;-67
2022/10/24 05:57:51;;;;;;;3.95;1.00;;;14.00;99.90;;;;;;5056622;28;20178;-66
2022/10/24 06:00:17;;;;;;;5.72;2.25;;;14.00;99.90;;;;;;5049274;28;20045;-67
2022/10/24 06:02:44;;;;;;;5.28;1.05;;;14.10;99.90;;;;;;5047085;28;20053;-66
2022/10/24 06:05:10;;;;;;;5.63;1.02;;;14.20;99.90;;;;;;5047138;28;20121;-66
2022/10/24 06:07:36;;;;;;;6.70;1.45;;;14.20;99.90;;;;;;5053837;28;20041;-66
2022/10/24 06:10:03;;;;;;;5.22;1.27;;;14.20;99.90;;;;;;5053103;28;20043;-66
2022/10/24 06:12:28;;;;;;;5.78;1.50;;;14.20;99.90;;;;;;5049860;28;20137;-67
2022/10/24 06:14:55;;;;;;;3.83;1.00;;;14.30;99.90;;;;;;5052233;28;20073;-66
2022/10/24 06:17:21;;;;;;;5.85;1.17;;;14.30;99.90;;;;;;5049851;28;20063;-66
2022/10/24 06:19:48;;;;;;;5.97;0.80;;;14.30;99.90;;;;;;5054618;28;20070;-66
2022/10/24 06:22:13;;;;;;;6.53;1.17;;;14.40;99.90;;;;;;5055281;28;20515;-66
2022/10/24 06:24:39;;;;;;;6.15;1.15;;;14.40;99.90;;;;;;5052126;28;20064;-66
2022/10/24 06:27:05;;;;;;;3.75;1.00;;;14.50;99.90;;;;;;5055721;28;20485;-66
2022/10/24 06:29:31;;;;;;;8.25;1.35;;;14.50;99.90;;;;;;5054337;28;20098;-66
2022/10/24 06:31:57;;;;;;;10.93;2.25;;;14.60;99.90;;;;;;5057122;28;20041;-66
2022/10/24 06:34:23;;;;;;;7.60;1.33;;;14.70;99.90;;;;;;5057648;28;20039;-66
2022/10/24 06:36:49;;;;;;;5.82;1.25;;;14.70;99.90;;;;;;5053626;28;20097;-66
2022/10/24 06:39:15;;;;;;;6.28;1.58;;;14.70;99.90;;;;;;5052153;28;20051;-66
2022/10/24 06:41:40;;;;;;;4.95;1.45;;;14.60;99.90;;;;;;5060464;28;20068;-66
2022/10/24 06:44:06;;;;;;;9.73;1.98;;;14.60;99.90;;;;;;5054684;28;20032;-66
2022/10/24 06:46:32;;;;;;;11.20;2.83;;;14.60;99.90;;;;;;5054466;28;20047;-66
2022/10/24 06:48:58;;;;;;;8.35;1.40;;;14.60;99.90;;;;;;5056568;28;20468;-66
2022/10/24 06:51:24;;;;;;;5.97;1.63;;;14.50;99.90;;;;;;5053510;28;20048;-66
2022/10/24 06:53:50;;;;;;;7.75;2.28;;;14.50;99.90;;;;;;5052417;28;20227;-66
2022/10/24 06:56:17;;;;;;;6.10;1.40;;;14.50;99.90;;;;;;5054089;28;20119;-66
2022/10/24 06:58:43;;;;;;;7.85;1.42;;;14.50;99.90;;;;;;5055838;28;20045;-66
2022/10/24 07:01:15;;;;;;;9.70;2.10;;;14.40;99.90;;;;;;5060887;28;20464;-66
2022/10/24 07:03:41;;;;;;;7.18;1.48;;;14.50;99.90;;;;;;5053814;28;20260;-66
2022/10/24 07:06:18;;;;;;;5.70;1.35;;;14.50;99.90;;;;;;5057250;28;20491;-66
2022/10/24 07:08:44;;;;;;;6.47;1.25;;;14.70;99.90;;;;;;5051008;28;20116;-66
2022/10/24 07:11:10;;;;;;;9.02;1.10;;;14.80;99.90;;;;;;5043503;28;20580;-66
2022/10/24 07:13:36;;;;;;;12.02;1.27;;;15.00;99.90;;;;;;5051674;28;20091;-66
2022/10/24 07:16:02;;;;;;;5.03;1.05;;;15.20;99.90;;;;;;5053822;28;20527;-66
2022/10/24 07:18:28;;;;;;;10.30;1.63;;;15.50;99.90;;;;;;5054879;28;20210;-66
2022/10/24 07:20:54;;;;;;;6.80;1.45;;;15.90;99.90;;;;;;5054327;28;20071;-66
2022/10/24 07:23:20;;;;;;;8.65;1.20;;;16.50;99.90;;;;;;5057798;28;20076;-66
2022/10/24 07:25:45;;;;;;;8.52;1.02;;;17.20;99.90;;;;;;5055424;28;20059;-66
2022/10/24 07:28:11;;;;;;;7.00;1.33;;;17.90;99.90;;;;;;5055736;28;20094;-66
2022/10/24 07:30:38;;;;;;;9.80;1.38;;;18.40;99.90;;;;;;5058706;28;20515;-66
2022/10/24 07:33:04;;;;;;;7.05;1.00;;;18.30;99.90;;;;;;5057625;28;20037;-66
2022/10/24 07:35:30;;;;;;;6.43;1.10;;;17.90;99.90;;;;;;5057863;28;20047;-66
2022/10/24 07:37:56;;;;;;;6.45;1.50;;;17.40;99.90;;;;;;5052917;28;20364;-66
2022/10/24 07:40:21;;;;;;;5.22;1.02;;;17.00;99.90;;;;;;5046003;28;20053;-66
2022/10/24 07:42:47;;;;;;;6.28;1.20;;;16.60;99.90;;;;;;5048441;28;20053;-66
2022/10/24 07:45:13;;;;;;;5.68;0.90;;;16.40;99.90;;;;;;5053175;28;20044;-66
2022/10/24 07:47:39;;;;;;;5.60;1.08;;;16.40;99.90;;;;;;5055428;28;20032;-66
2022/10/24 07:50:05;;;;;;;5.60;1.02;;;16.30;99.90;;;;;;5057812;28;20037;-66
2022/10/24 07:52:31;;;;;;;6.88;1.35;;;16.20;99.90;;;;;;5060241;28;20136;-66
2022/10/24 07:54:57;;;;;;;8.82;1.40;;;16.40;99.90;;;;;;5059364;28;20127;-66
2022/10/24 07:57:23;;;;;;;9.65;1.27;;;16.40;99.90;;;;;;5057976;28;20101;-66
2022/10/24 07:59:49;;;;;;;9.60;1.33;;;16.30;99.90;;;;;;5061573;28;20561;-66
2022/10/24 08:02:16;;;;;;;4.97;0.95;;;16.30;99.90;;;;;;5057530;28;20029;-66
2022/10/24 08:04:42;;;;;;;5.40;0.90;;;16.30;99.90;;;;;;5054268;28;20555;-66
2022/10/24 08:07:13;;;;;;;4.93;1.00;;;16.40;99.90;;;;;;5051755;28;20500;-66
2022/10/24 08:09:41;;;;;;;9.82;1.10;;;16.50;99.90;;;;;;5058375;28;20040;-66
2022/10/24 08:12:06;;;;;;;5.35;1.00;;;16.50;99.90;;;;;;5055866;28;20094;-66
2022/10/24 08:14:32;;;;;;;10.65;1.05;;;16.40;99.90;;;;;;5053622;28;20045;-66
2022/10/24 08:16:58;;;;;;;6.00;0.85;;;16.40;99.90;;;;;;5044703;28;20029;-66
2022/10/24 08:19:24;;;;;;;7.82;1.08;;;16.40;99.90;;;;;;5057704;28;20083;-65
2022/10/24 08:21:51;;;;;;;6.78;1.20;;;16.60;99.90;;;;;;5053854;28;20033;-66
2022/10/24 08:24:17;;;;;;;8.35;1.40;;;16.60;99.90;;;;;;5055946;28;20041;-66
2022/10/24 08:26:43;;;;;;;8.68;1.35;;;16.70;99.90;;;;;;5048723;28;20055;-65
2022/10/24 08:29:13;;;;;;;6.82;1.30;;;16.70;99.90;;;;;;5042258;28;20044;-65
2022/10/24 08:31:39;;;;;;;6.20;1.20;;;16.60;99.90;;;;;;5054723;28;20116;-66
2022/10/24 08:34:05;;;;;;;5.05;0.80;;;16.50;99.90;;;;;;5052763;28;20435;-65
2022/10/24 08:36:34;;;;;;;6.28;1.13;;;16.50;99.90;;;;;;5055797;28;20236;-65
2022/10/24 08:39:00;;;;;;;11.18;1.52;;;16.60;99.90;;;;;;5051485;28;20051;-65
2022/10/24 08:41:39;;;;;;;8.10;1.25;;;16.70;99.90;;;;;;5048974;28;20742;-65
2022/10/24 08:44:35;;;;;;;5.93;0.90;;;16.80;99.90;;;;;;5057722;28;20498;-65
2022/10/24 08:47:32;;;;;;;7.15;1.48;;;17.00;99.90;;;;;;5052537;28;20512;-66
2022/10/24 08:50:03;;;;;;;4.90;1.38;;;17.30;99.90;;;;;;5057760;28;20043;-65
2022/10/24 08:52:40;;;;;;;10.32;1.27;;;18.30;99.90;;;;;;5055422;28;20488;-65
2022/10/24 08:55:19;;;;;;;7.80;1.30;;;18.90;99.90;;;;;;5064219;28;20032;-65
2022/10/24 08:57:49;;;;;;;10.27;1.35;;;19.30;99.90;;;;;;5056669;28;20362;-65
2022/10/24 09:00:30;;;;;;;8.15;1.40;;;19.60;99.90;;;;;;5058593;28;20044;-65
2022/10/24 09:03:16;;;;;;;5.30;1.30;;;20.00;99.90;;;;;;5050243;28;20098;-65
2022/10/24 09:05:56;;;;;;;7.55;1.15;;;20.80;99.90;;;;;;5054081;28;20036;-65
2022/10/24 09:08:26;;;;;;;8.02;1.00;;;20.50;99.90;;;;;;5055780;28;20040;-65
2022/10/24 09:11:00;;;;;;;7.80;1.38;;;19.90;99.90;;;;;;5056208;28;20037;-65
2022/10/24 09:13:27;;;;;;;6.53;1.00;;;19.50;99.90;;;;;;5049930;28;20116;-65
2022/10/24 09:15:53;;;;;;;5.80;1.10;;;19.00;99.90;;;;;;5054460;28;20033;-65
2022/10/24 09:18:26;;;;;;;6.68;1.17;;;18.60;99.90;;;;;;5060343;28;20033;-65
2022/10/24 09:20:53;;;;;;;8.25;1.23;;;18.40;99.90;;;;;;5053309;28;20048;-65
2022/10/24 09:23:21;;;;;;;5.70;0.95;;;18.40;99.90;;;;;;5053830;28;20067;-65
2022/10/24 09:25:54;;;;;;;7.22;1.02;;;18.20;99.90;;;;;;5053999;28;20186;-65
2022/10/24 09:28:20;;;;;;;11.85;1.90;;;18.10;99.90;;;;;;5057050;28;20037;-65
2022/10/24 09:30:46;;;;;;;8.82;1.20;;;17.90;99.90;;;;;;5051538;28;20051;-65
2022/10/24 09:33:32;;;;;;;6.28;1.00;;;17.80;99.90;;;;;;5055327;28;20131;-65
2022/10/24 09:36:02;;;;;;;5.63;1.30;;;17.80;99.90;;;;;;5053492;28;20380;-64
2022/10/24 09:38:32;;;;;;;4.82;1.00;;;17.80;99.90;;;;;;5055621;28;20099;-65
2022/10/24 09:41:18;;;;;;;8.55;1.42;;;17.80;99.90;;;;;;5057884;28;20482;-65
2022/10/24 09:43:44;;;;;;;7.10;1.25;;;17.70;99.90;;;;;;5059896;28;20118;-65
2022/10/24 09:46:46;;;;;;;8.25;1.25;;;17.70;99.90;;;;;;5056205;28;20040;-65
2022/10/24 09:49:13;;;;;;;6.85;1.10;;;18.30;99.90;;;;;;5048065;28;20075;-65
2022/10/24 09:51:48;;;;;;;5.57;0.98;;;19.50;99.90;;;;;;5050963;28;20060;-65
2022/10/24 09:54:19;;;;;;;5.80;1.02;;;21.00;99.90;;;;;;5057122;28;20061;-66
2022/10/24 09:56:46;;;;;;;6.10;1.15;;;22.20;99.90;;;;;;5057140;28;20048;-66
2022/10/24 09:59:32;;;;;;;5.13;0.88;;;23.10;99.90;;;;;;5055806;28;20120;-66
2022/10/24 10:02:23;;;;;;;4.03;0.70;;;23.30;95.80;;;;;;5053186;28;20036;-66
2022/10/24 10:05:01;;;;;;;4.15;0.80;;;23.10;97.00;;;;;;5052094;28;20352;-65
2022/10/24 10:07:34;;;;;;;5.22;0.68;;;22.80;95.20;;;;;;5051546;28;20229;-66
2022/10/24 10:10:21;;;;;;;4.03;1.02;;;22.20;95.90;;;;;;5053142;28;20055;-66
2022/10/24 10:13:18;;;;;;;4.60;0.70;;;21.30;96.10;;;;;;5055364;28;20040;-65
2022/10/24 10:15:51;;;;;;;4.60;1.00;;;21.10;97.70;;;;;;5052408;28;20045;-65
2022/10/24 10:18:33;;;;;;;4.75;0.75;;;21.40;98.70;;;;;;5045935;28;20167;-65
2022/10/24 10:21:18;;;;;;;4.65;0.70;;;22.30;97.20;;;;;;5048942;28;20049;-65
2022/10/24 10:23:44;;;;;;;4.03;0.60;;;22.90;94.90;;;;;;5056064;28;20048;-66
2022/10/24 10:26:22;;;;;;;4.20;0.95;;;23.10;94.50;;;;;;5049992;28;20165;-65
2022/10/24 10:29:00;;;;;;;6.45;0.90;;;22.30;93.60;;;;;;5047871;28;20153;-65
2022/10/24 10:31:53;;;;;;;8.85;1.17;;;21.90;94.60;;;;;;5049487;28;20416;-65
2022/10/24 10:34:29;;;;;;;8.43;0.80;;;22.00;94.40;;;;;;5049340;28;20135;-65
2022/10/24 10:37:24;;;;;;;5.03;0.70;;;22.40;94.10;;;;;;5048693;28;20033;-65
2022/10/24 10:40:35;;;;;;;4.25;0.93;;;22.30;93.30;;;;;;5046438;28;20090;-65
2022/10/24 10:43:23;;;;;;;2.35;0.60;;;22.60;93.70;;;;;;5051123;28;20124;-65
2022/10/24 10:46:15;;;;;;;4.30;0.82;;;22.20;93.70;;;;;;5051589;28;20041;-65
2022/10/24 10:48:59;;;;;;;4.32;0.73;;;21.90;93.00;;;;;;5049846;28;20076;-66
2022/10/24 10:51:57;;;;;;;3.85;0.80;;;21.00;94.60;;;;;;5054624;28;20072;-65
2022/10/24 10:54:58;;;;;;;4.60;0.88;;;20.50;95.80;;;;;;5049802;28;20040;-64
2022/10/24 10:57:40;;;;;;;5.60;1.10;;;20.20;96.80;;;;;;5050994;28;20053;-66
2022/10/24 11:00:15;;;;;;;4.00;0.80;;;20.30;97.60;;;;;;5055413;28;20133;-66
2022/10/24 11:02:52;;;;;;;;;;;20.70;98.10;;;;;;5059142;28;20639;-66
2022/10/24 11:05:17;;;;;;;7.85;1.23;;;21.30;96.70;;;;;;5058682;28;20011;-66
2022/10/24 11:08:03;;;;;;;3.80;1.02;;;21.80;96.50;;;;;;5058696;28;20139;-66
2022/10/24 11:10:41;;;;;;;3.70;1.00;;;22.20;95.30;;;;;;5053539;28;20272;-67
2022/10/24 11:13:18;;;;;;;5.95;0.80;;;22.70;93.80;;;;;;5056918;28;20041;-66
2022/10/24 11:15:49;;;;;;;5.30;1.00;;;22.50;94.40;;;;;;5055592;28;20091;-66
2022/10/24 11:18:22;;;;;;;6.82;0.80;;;22.80;93.00;;;;;;5050554;28;20028;-67
2022/10/24 11:21:07;;;;;;;5.70;0.82;;;22.70;92.50;;;;;;5059065;28;20057;-66
2022/10/24 11:23:53;;;;;;;4.20;0.70;;;22.10;92.60;;;;;;5054337;28;20041;-66
2022/10/24 11:26:25;;;;;;;4.00;0.77;;;21.60;93.10;;;;;;5059275;28;20033;-66
2022/10/24 11:29:00;;;;;;;3.15;0.70;;;21.00;93.50;;;;;;5053361;28;20075;-66
2022/10/24 11:31:31;;;;;;;4.20;0.68;;;20.90;94.30;;;;;;5060260;28;20033;-67
2022/10/24 11:34:02;;;;;;;4.35;0.50;;;21.50;93.90;;;;;;5059863;28;20400;-66
2022/10/24 11:36:42;;;;;;;4.43;0.82;;;21.80;92.40;;;;;;5052670;28;20486;-67
2022/10/24 11:39:14;;;;;;;2.20;0.60;;;21.50;92.40;;;;;;5058314;28;20097;-66
2022/10/24 11:41:44;;;;;;;5.50;0.70;;;21.00;94.00;;;;;;5058521;28;20071;-66
2022/10/24 11:44:39;;;;;;;3.40;0.50;;;20.70;94.70;;;;;;5055860;28;20035;-66
2022/10/24 11:47:13;;;;;;;;;;;20.30;94.30;;;;;;5058039;28;20029;-67
2022/10/24 11:49:44;;;;;;;4.72;0.68;;;20.00;95.20;;;;;;5053929;28;20283;-66
2022/10/24 11:52:22;;;;;;;4.03;0.52;;;19.80;95.20;;;;;;5059396;28;20065;-66
2022/10/24 11:54:54;;;;;;;4.38;0.57;;;19.60;96.00;;;;;;5050558;28;20119;-66
2022/10/24 11:57:30;;;;;;;7.22;0.93;;;19.50;97.00;;;;;;5060618;28;20590;-66
2022/10/24 11:59:57;;;;;;;6.47;0.98;;;19.40;96.90;;;;;;5059384;28;20124;-66
2022/10/24 12:02:44;;;;;;;3.28;0.50;;;19.30;97.50;;;;;;5058346;28;20178;-66
2022/10/24 12:05:51;;;;;;;3.45;0.68;;;19.10;97.90;;;;;;5056941;28;20040;-66
2022/10/24 12:08:25;;;;;;;4.90;0.60;;;18.90;98.50;;;;;;5054957;28;20120;-66
2022/10/24 12:11:27;;;;;;;5.40;0.60;;;18.80;99.10;;;;;;5057224;28;20071;-66
2022/10/24 12:14:15;;;;;;;5.63;1.00;;;18.70;99.30;;;;;;5054735;28;20133;-66
2022/10/24 12:16:50;;;;;;;4.03;0.70;;;18.70;99.70;;;;;;5055479;28;20048;-66
2022/10/24 12:19:18;;;;;;;6.68;1.10;;;18.70;99.20;;;;;;5055093;28;20115;-66
2022/10/24 12:21:57;;;;;;;3.35;0.57;;;18.70;99.50;;;;;;5058034;28;20118;-66
2022/10/24 12:24:35;;;;;;;4.88;0.52;;;18.50;99.90;;;;;;5050074;28;20455;-66
2022/10/24 12:27:04;;;;;;;5.78;1.13;;;18.50;99.90;;;;;;5056363;28;20094;-66
2022/10/24 12:29:32;;;;;;;6.28;0.63;;;18.40;99.90;;;;;;5055936;28;20041;-66
2022/10/24 12:32:18;;;;;;;6.13;0.80;;;18.40;99.90;;;;;;5057495;28;20348;-66
2022/10/24 12:34:56;;;;;;;3.45;0.60;;;18.20;99.90;;;;;;5051306;28;20047;-66
2022/10/24 12:37:24;;;;;;;5.45;0.80;;;18.10;99.90;;;;;;5058479;28;20041;-66
2022/10/24 12:39:51;;;;;;;6.15;0.93;;;18.00;99.90;;;;;;5057512;28;20433;-67
2022/10/24 12:42:22;;;;;;;5.65;0.88;;;17.90;99.90;;;;;;5056020;28;20062;-66
2022/10/24 12:45:00;;;;;;;7.22;0.75;;;17.90;99.90;;;;;;5054780;28;20146;-66
2022/10/24 12:47:42;;;;;;;3.47;0.77;;;18.00;99.90;;;;;;5052124;28;20041;-66
2022/10/24 12:50:22;;;;;;;5.65;0.93;;;18.00;99.90;;;;;;5053533;28;20076;-66
2022/10/24 12:53:01;;;;;;;5.63;0.68;;;18.00;99.90;;;;;;5054606;28;20512;-66
2022/10/24 12:55:36;;;;;;;5.25;0.70;;;18.00;99.90;;;;;;5052673;28;20072;-67
2022/10/24 12:58:19;;;;;;;5.70;0.70;;;17.90;99.90;;;;;;5057812;28;20068;-66
2022/10/24 13:00:54;;;;;;;6.03;0.70;;;17.80;99.90;;;;;;5053193;28;20124;-67
2022/10/24 13:03:54;;;;;;;5.07;0.77;;;17.70;99.90;;;;;;5058745;28;20036;-67
2022/10/24 13:06:30;;;;;;;4.30;0.70;;;17.70;99.90;;;;;;5054376;28;20559;-66
2022/10/24 13:09:14;;;;;;;4.05;0.60;;;17.70;99.90;;;;;;5053958;28;20064;-75
2022/10/24 13:11:49;;;;;;;7.47;0.55;;;17.70;99.90;;;;;;5030867;28;20171;-77